Terminal Aerodrome Forecast
Issued by NWS

Home | Current Version | Previous Version | Text Only | Print | Product List | Glossary On
Versions: 1 2 3 4 5 6 7 8 9 10 11 12 13 14 15 16 17 18 19 20 21 22 23
106
FTUS43 KMPX 181528 AAB
TAFRWF
TAF AMD
KRWF 181528Z 1815/1912 19004KT 5SM -SHRA BR SCT050 OVC080
     FM181600 18004KT P6SM VCSH SCT050 BKN100
     FM182100 32004KT P6SM VCTS SCT030CB BKN080
      TEMPO 1822/1901 1SM -TSRA BKN040CB
     FM190200 VRB03KT P6SM SKC
     FM190700 VRB02KT 3SM BR SKC
      TEMPO 1910/1912 1SM BR SCT002=

USA.gov is the U.S. government's official web portal to all federal, state and local government web resources and services.